FIN8AF EGCC-EFHK
Flight info
| Callsign | FIN8AF |
|---|---|
| Flight time | 2h 16m |
| Altitude | 35000 |
| Route | DESIG L603 LAMIX UT29 LIBSO UL975 ROPAL DCT LESRA L975 GOLUM N866 KEMEG DCT ETVOK DCT DETNA N866 INVOL DCT DETSO DCT TUSNI DCT IBVUT Y363 LAKUT |
| Aircraft | A321/M-SDE3FGHIRWY/LB1 |
Departure
| Time | 2026-05-06 07:15 |
|---|---|
| Airport | Manchester Airport (EGCC) |
Arrival
| Time | 2026-05-06 09:31 |
|---|---|
| Airport | Helsinki Vantaa Airport (EFHK) |
| Time | Latitude | Longitude | Altitude | Speed | Heading |
|---|---|---|---|---|---|
| 2026-05-06 06:37 | 53.35951 | -2.27136 | 233 ft | 0 kts | 89° |
| 2026-05-06 06:47 | 53.35951 | -2.27137 | 233 ft | 0 kts | 89° |
| 2026-05-06 07:03 | 53.35951 | -2.27151 | 233 ft | 2 kts | 94° |
| 2026-05-06 07:03 | 53.35953 | -2.27178 | 233 ft | 2 kts | 103° |
| 2026-05-06 07:04 | 53.35958 | -2.27205 | 235 ft | 2 kts | 120° |
| 2026-05-06 07:04 | 53.35967 | -2.27227 | 234 ft | 2 kts | 148° |
| 2026-05-06 07:04 | 53.35988 | -2.27240 | 233 ft | 2 kts | 176° |
| 2026-05-06 07:04 | 53.35994 | -2.27241 | 233 ft | 1 kts | 179° |
| 2026-05-06 07:05 | 53.35996 | -2.27241 | 233 ft | 0 kts | 179° |
| 2026-05-06 07:07 | 53.35990 | -2.27241 | 233 ft | 2 kts | 179° |
| 2026-05-06 07:08 | 53.35975 | -2.27240 | 233 ft | 3 kts | 179° |
| 2026-05-06 07:08 | 53.35950 | -2.27240 | 233 ft | 4 kts | 179° |
| 2026-05-06 07:08 | 53.35917 | -2.27232 | 233 ft | 5 kts | 171° |
| 2026-05-06 07:08 | 53.35877 | -2.27221 | 233 ft | 6 kts | 171° |
| 2026-05-06 07:09 | 53.35832 | -2.27199 | 233 ft | 7 kts | 146° |
| 2026-05-06 07:09 | 53.35786 | -2.27160 | 233 ft | 8 kts | 175° |
| 2026-05-06 07:09 | 53.35740 | -2.27206 | 234 ft | 8 kts | 227° |
| 2026-05-06 07:09 | 53.35699 | -2.27287 | 234 ft | 10 kts | 230° |
| 2026-05-06 07:10 | 53.35654 | -2.27379 | 233 ft | 11 kts | 231° |
| 2026-05-06 07:10 | 53.35606 | -2.27481 | 233 ft | 12 kts | 232° |
| 2026-05-06 07:10 | 53.35558 | -2.27582 | 233 ft | 12 kts | 231° |
| 2026-05-06 07:10 | 53.35505 | -2.27691 | 233 ft | 12 kts | 231° |
| 2026-05-06 07:11 | 53.35460 | -2.27815 | 233 ft | 13 kts | 258° |
| 2026-05-06 07:11 | 53.35434 | -2.27955 | 233 ft | 13 kts | 226° |
| 2026-05-06 07:11 | 53.35364 | -2.28067 | 233 ft | 14 kts | 223° |
| 2026-05-06 07:11 | 53.35290 | -2.28189 | 233 ft | 15 kts | 226° |
| 2026-05-06 07:12 | 53.35219 | -2.28323 | 233 ft | 15 kts | 231° |
| 2026-05-06 07:12 | 53.35151 | -2.28465 | 233 ft | 16 kts | 231° |
| 2026-05-06 07:12 | 53.35084 | -2.28606 | 233 ft | 10 kts | 231° |
| 2026-05-06 07:12 | 53.35036 | -2.28702 | 233 ft | 11 kts | 230° |
| 2026-05-06 07:13 | 53.34967 | -2.28737 | 233 ft | 11 kts | 155° |
| 2026-05-06 07:13 | 53.34902 | -2.28655 | 233 ft | 12 kts | 142° |
| 2026-05-06 07:13 | 53.34870 | -2.28551 | 234 ft | 10 kts | 74° |
| 2026-05-06 07:13 | 53.34902 | -2.28476 | 235 ft | 0 kts | 50° |
| 2026-05-06 07:14 | 53.34912 | -2.28454 | 236 ft | 11 kts | 50° |
| 2026-05-06 07:14 | 53.35084 | -2.28096 | 232 ft | 76 kts | 51° |
| 2026-05-06 07:14 | 53.35565 | -2.27114 | 240 ft | 139 kts | 51° |
| 2026-05-06 07:14 | 53.36267 | -2.25652 | 411 ft | 172 kts | 50° |
| 2026-05-06 07:15 | 53.36995 | -2.24141 | 1333 ft | 163 kts | 51° |
| 2026-05-06 07:15 | 53.37679 | -2.22675 | 2124 ft | 158 kts | 53° |
| 2026-05-06 07:15 | 53.38389 | -2.21130 | 2475 ft | 177 kts | 52° |
| 2026-05-06 07:15 | 53.39188 | -2.19439 | 2843 ft | 192 kts | 51° |
| 2026-05-06 07:16 | 53.40061 | -2.17608 | 3077 ft | 214 kts | 52° |
| 2026-05-06 07:16 | 53.41026 | -2.15568 | 3429 ft | 231 kts | 51° |
| 2026-05-06 07:16 | 53.42065 | -2.13364 | 3904 ft | 247 kts | 51° |
| 2026-05-06 07:16 | 53.43142 | -2.11077 | 4650 ft | 253 kts | 50° |
| 2026-05-06 07:17 | 53.44251 | -2.08728 | 4965 ft | 258 kts | 50° |
| 2026-05-06 07:17 | 53.45359 | -2.06375 | 5022 ft | 257 kts | 50° |
| 2026-05-06 07:17 | 53.46465 | -2.04018 | 5023 ft | 256 kts | 50° |
| 2026-05-06 07:17 | 53.47566 | -2.01664 | 5024 ft | 256 kts | 49° |
| 2026-05-06 07:18 | 53.48668 | -1.99311 | 5023 ft | 256 kts | 49° |
| 2026-05-06 07:18 | 53.49772 | -1.96972 | 5020 ft | 256 kts | 49° |
| 2026-05-06 07:18 | 53.50886 | -1.94629 | 5018 ft | 256 kts | 50° |
| 2026-05-06 07:18 | 53.51776 | -1.92028 | 5024 ft | 259 kts | 67° |
| 2026-05-06 07:19 | 53.52185 | -1.89071 | 5017 ft | 263 kts | 82° |
| 2026-05-06 07:19 | 53.52094 | -1.85963 | 5388 ft | 272 kts | 99° |
| 2026-05-06 07:19 | 53.51587 | -1.82891 | 6237 ft | 275 kts | 103° |
| 2026-05-06 07:19 | 53.51049 | -1.79781 | 6968 ft | 280 kts | 103° |
| 2026-05-06 07:20 | 53.50499 | -1.76609 | 7700 ft | 285 kts | 104° |
| 2026-05-06 07:20 | 53.49941 | -1.73396 | 8452 ft | 288 kts | 104° |
| 2026-05-06 07:20 | 53.49370 | -1.70139 | 9198 ft | 293 kts | 104° |
| 2026-05-06 07:20 | 53.48787 | -1.66844 | 9942 ft | 297 kts | 105° |
| 2026-05-06 07:21 | 53.48188 | -1.63472 | 10384 ft | 311 kts | 105° |
| 2026-05-06 07:21 | 53.47547 | -1.59869 | 10556 ft | 334 kts | 105° |
| 2026-05-06 07:21 | 53.46862 | -1.56025 | 10828 ft | 351 kts | 105° |
| 2026-05-06 07:21 | 53.46164 | -1.52121 | 11385 ft | 357 kts | 105° |
| 2026-05-06 07:22 | 53.45436 | -1.48058 | 12025 ft | 361 kts | 106° |
| 2026-05-06 07:22 | 53.44714 | -1.44052 | 12671 ft | 365 kts | 106° |
| 2026-05-06 07:22 | 53.43975 | -1.39957 | 13329 ft | 369 kts | 106° |
| 2026-05-06 07:22 | 53.43230 | -1.35842 | 13959 ft | 372 kts | 107° |
| 2026-05-06 07:23 | 53.42469 | -1.31651 | 14549 ft | 376 kts | 107° |
| 2026-05-06 07:23 | 53.41704 | -1.27442 | 15148 ft | 379 kts | 107° |
| 2026-05-06 07:23 | 53.40933 | -1.23189 | 15738 ft | 383 kts | 107° |
| 2026-05-06 07:23 | 53.40156 | -1.18908 | 16334 ft | 386 kts | 107° |
| 2026-05-06 07:24 | 53.39372 | -1.14588 | 16936 ft | 389 kts | 107° |
| 2026-05-06 07:24 | 53.38578 | -1.10230 | 17517 ft | 393 kts | 107° |
| 2026-05-06 07:24 | 53.37775 | -1.05841 | 18111 ft | 396 kts | 107° |
| 2026-05-06 07:24 | 53.36962 | -1.01417 | 18640 ft | 399 kts | 108° |
| 2026-05-06 07:25 | 53.36138 | -0.96960 | 19152 ft | 402 kts | 108° |
| 2026-05-06 07:25 | 53.35307 | -0.92479 | 19648 ft | 405 kts | 108° |
| 2026-05-06 07:25 | 53.34468 | -0.87963 | 20176 ft | 408 kts | 108° |
| 2026-05-06 07:25 | 53.33620 | -0.83402 | 20695 ft | 411 kts | 108° |
| 2026-05-06 07:26 | 53.32767 | -0.78822 | 21212 ft | 414 kts | 108° |
| 2026-05-06 07:26 | 53.32092 | -0.74127 | 21694 ft | 418 kts | 98° |
| 2026-05-06 07:26 | 53.31930 | -0.69247 | 22175 ft | 422 kts | 88° |
| 2026-05-06 07:26 | 53.32310 | -0.64376 | 22637 ft | 425 kts | 76° |
| 2026-05-06 07:27 | 53.33224 | -0.59660 | 23092 ft | 428 kts | 66° |
| 2026-05-06 07:27 | 53.34489 | -0.55141 | 23531 ft | 431 kts | 64° |
| 2026-05-06 07:27 | 53.35770 | -0.50594 | 23917 ft | 433 kts | 64° |
| 2026-05-06 07:27 | 53.37051 | -0.46006 | 24296 ft | 436 kts | 64° |
| 2026-05-06 07:28 | 53.38330 | -0.41396 | 24691 ft | 438 kts | 64° |
| 2026-05-06 07:28 | 53.39618 | -0.36745 | 25066 ft | 441 kts | 64° |
| 2026-05-06 07:28 | 53.42219 | -0.27425 | 25822 ft | 445 kts | 64° |
| 2026-05-06 07:29 | 53.43554 | -0.22687 | 26198 ft | 448 kts | 64° |
| 2026-05-06 07:29 | 53.44888 | -0.17955 | 26564 ft | 450 kts | 64° |
| 2026-05-06 07:29 | 53.46230 | -0.13191 | 26918 ft | 453 kts | 64° |
| 2026-05-06 07:29 | 53.47574 | -0.08398 | 27268 ft | 455 kts | 64° |
| 2026-05-06 07:30 | 53.48921 | -0.03571 | 27617 ft | 457 kts | 64° |
| 2026-05-06 07:30 | 53.50268 | 0.01274 | 27958 ft | 460 kts | 64° |
| 2026-05-06 07:30 | 53.51727 | 0.06068 | 28279 ft | 461 kts | 58° |
| 2026-05-06 07:30 | 53.53570 | 0.10486 | 28607 ft | 462 kts | 49° |
| 2026-05-06 07:31 | 53.55790 | 0.14405 | 28916 ft | 463 kts | 40° |
| 2026-05-06 07:31 | 53.58194 | 0.18037 | 29233 ft | 466 kts | 40° |
| 2026-05-06 07:31 | 53.60607 | 0.21693 | 29547 ft | 468 kts | 40° |
| 2026-05-06 07:31 | 53.63030 | 0.25379 | 29858 ft | 471 kts | 41° |
| 2026-05-06 07:32 | 53.65458 | 0.29090 | 30157 ft | 473 kts | 41° |
| 2026-05-06 07:32 | 53.67900 | 0.32842 | 30440 ft | 475 kts | 41° |
| 2026-05-06 07:32 | 53.70331 | 0.36590 | 30820 ft | 474 kts | 41° |
| 2026-05-06 07:32 | 53.72768 | 0.40355 | 31194 ft | 473 kts | 41° |
| 2026-05-06 07:33 | 53.75196 | 0.44106 | 31551 ft | 473 kts | 41° |
| 2026-05-06 07:33 | 53.77622 | 0.47853 | 31910 ft | 473 kts | 41° |
| 2026-05-06 07:33 | 53.80048 | 0.51600 | 32267 ft | 472 kts | 41° |
| 2026-05-06 07:33 | 53.82469 | 0.55348 | 32621 ft | 472 kts | 41° |
| 2026-05-06 07:34 | 53.84891 | 0.59102 | 32965 ft | 472 kts | 41° |
| 2026-05-06 07:34 | 53.87296 | 0.62883 | 33311 ft | 471 kts | 44° |
| 2026-05-06 07:34 | 53.89417 | 0.67024 | 33638 ft | 472 kts | 53° |
| 2026-05-06 07:34 | 53.91232 | 0.71642 | 33956 ft | 472 kts | 57° |
| 2026-05-06 07:35 | 53.93002 | 0.76333 | 34251 ft | 471 kts | 57° |
| 2026-05-06 07:35 | 53.94773 | 0.81019 | 34510 ft | 471 kts | 57° |
| 2026-05-06 07:35 | 53.96545 | 0.85710 | 34769 ft | 471 kts | 57° |
| 2026-05-06 07:35 | 53.98314 | 0.90395 | 34951 ft | 472 kts | 57° |
| 2026-05-06 07:36 | 54.01850 | 0.99777 | 35007 ft | 470 kts | 57° |
| 2026-05-06 07:36 | 54.05363 | 1.09149 | 35009 ft | 470 kts | 57° |
| 2026-05-06 07:37 | 54.08867 | 1.18534 | 35006 ft | 470 kts | 57° |
| 2026-05-06 07:37 | 54.12365 | 1.27942 | 35006 ft | 470 kts | 57° |
| 2026-05-06 07:38 | 54.15852 | 1.37345 | 35002 ft | 469 kts | 57° |
| 2026-05-06 07:38 | 54.19337 | 1.46778 | 35008 ft | 470 kts | 58° |
| 2026-05-06 07:39 | 54.22815 | 1.56228 | 35008 ft | 470 kts | 58° |
| 2026-05-06 07:39 | 54.26287 | 1.65695 | 35008 ft | 470 kts | 58° |
| 2026-05-06 07:40 | 54.29745 | 1.75195 | 35008 ft | 470 kts | 58° |
| 2026-05-06 07:40 | 54.33208 | 1.84716 | 35014 ft | 471 kts | 58° |
| 2026-05-06 07:41 | 54.36663 | 1.94247 | 35016 ft | 471 kts | 58° |
| 2026-05-06 07:41 | 54.40111 | 2.03798 | 35020 ft | 471 kts | 58° |
| 2026-05-06 07:42 | 54.43554 | 2.13373 | 35021 ft | 471 kts | 58° |
| 2026-05-06 07:42 | 54.46982 | 2.22970 | 35024 ft | 471 kts | 58° |
| 2026-05-06 07:43 | 54.50412 | 2.32574 | 35030 ft | 471 kts | 58° |
| 2026-05-06 07:43 | 54.53834 | 2.42198 | 35029 ft | 471 kts | 58° |
| 2026-05-06 07:44 | 54.57241 | 2.51855 | 35028 ft | 472 kts | 59° |
| 2026-05-06 07:44 | 54.60646 | 2.61532 | 35036 ft | 472 kts | 59° |
| 2026-05-06 07:45 | 54.64054 | 2.71220 | 35036 ft | 472 kts | 59° |
| 2026-05-06 07:45 | 54.67453 | 2.80917 | 35033 ft | 472 kts | 59° |
| 2026-05-06 07:46 | 54.70837 | 2.90643 | 35039 ft | 472 kts | 59° |
| 2026-05-06 07:46 | 54.74212 | 3.00380 | 35034 ft | 472 kts | 59° |
| 2026-05-06 07:47 | 54.77885 | 3.09773 | 35037 ft | 472 kts | 53° |
| 2026-05-06 07:47 | 54.81810 | 3.18879 | 35040 ft | 472 kts | 53° |
| 2026-05-06 07:48 | 54.85706 | 3.27950 | 35036 ft | 472 kts | 53° |
| 2026-05-06 07:48 | 54.89613 | 3.37102 | 35039 ft | 472 kts | 53° |
| 2026-05-06 07:49 | 54.93510 | 3.46275 | 35037 ft | 472 kts | 53° |
| 2026-05-06 07:49 | 54.96773 | 3.53985 | 35042 ft | 472 kts | 53° |
| 2026-05-06 07:50 | 55.00630 | 3.63128 | 35040 ft | 472 kts | 53° |
| 2026-05-06 07:50 | 55.04542 | 3.72407 | 35035 ft | 471 kts | 53° |
| 2026-05-06 07:51 | 55.08419 | 3.81634 | 35032 ft | 472 kts | 54° |
| 2026-05-06 07:51 | 55.12257 | 3.90832 | 35028 ft | 472 kts | 54° |
| 2026-05-06 07:52 | 55.15330 | 4.00918 | 35021 ft | 471 kts | 68° |
| 2026-05-06 07:52 | 55.17846 | 4.11522 | 35014 ft | 472 kts | 68° |
| 2026-05-06 07:53 | 55.20385 | 4.22122 | 35017 ft | 472 kts | 68° |
| 2026-05-06 07:53 | 55.22912 | 4.32735 | 35016 ft | 473 kts | 68° |
| 2026-05-06 07:54 | 55.25425 | 4.43382 | 35018 ft | 473 kts | 68° |
| 2026-05-06 07:54 | 55.27925 | 4.54059 | 35022 ft | 473 kts | 69° |
| 2026-05-06 07:55 | 55.30418 | 4.64750 | 35027 ft | 474 kts | 69° |
| 2026-05-06 07:55 | 55.32914 | 4.75465 | 35028 ft | 474 kts | 69° |
| 2026-05-06 07:56 | 55.35399 | 4.86192 | 35028 ft | 474 kts | 69° |
| 2026-05-06 07:56 | 55.37865 | 4.96960 | 35032 ft | 475 kts | 69° |
| 2026-05-06 07:57 | 55.40325 | 5.07739 | 35036 ft | 475 kts | 69° |
| 2026-05-06 07:57 | 55.42785 | 5.18545 | 35037 ft | 475 kts | 69° |
| 2026-05-06 07:58 | 55.45409 | 5.29233 | 35032 ft | 476 kts | 61° |
| 2026-05-06 07:58 | 55.49016 | 5.39031 | 35028 ft | 477 kts | 57° |
| 2026-05-06 07:59 | 55.52676 | 5.48811 | 35028 ft | 478 kts | 57° |
| 2026-05-06 07:59 | 55.56319 | 5.58642 | 35027 ft | 479 kts | 57° |
| 2026-05-06 08:00 | 55.59935 | 5.68433 | 35029 ft | 479 kts | 57° |
| 2026-05-06 08:00 | 55.63582 | 5.78307 | 35030 ft | 480 kts | 57° |
| 2026-05-06 08:01 | 55.67225 | 5.88207 | 35033 ft | 481 kts | 57° |
| 2026-05-06 08:01 | 55.70867 | 5.98153 | 35040 ft | 481 kts | 58° |
| 2026-05-06 08:02 | 55.74489 | 6.08123 | 35039 ft | 481 kts | 58° |
| 2026-05-06 08:02 | 55.78112 | 6.18129 | 35033 ft | 482 kts | 58° |
| 2026-05-06 08:03 | 55.81738 | 6.28148 | 35028 ft | 482 kts | 58° |
| 2026-05-06 08:03 | 55.85359 | 6.38202 | 35027 ft | 483 kts | 58° |
| 2026-05-06 08:04 | 55.88971 | 6.48270 | 35028 ft | 483 kts | 58° |
| 2026-05-06 08:04 | 55.92570 | 6.58380 | 35021 ft | 483 kts | 58° |
| 2026-05-06 08:05 | 55.96167 | 6.68517 | 35024 ft | 484 kts | 58° |
| 2026-05-06 08:05 | 55.99767 | 6.78674 | 35025 ft | 484 kts | 58° |
| 2026-05-06 08:06 | 56.03367 | 6.88855 | 35026 ft | 485 kts | 58° |
| 2026-05-06 08:06 | 56.06958 | 6.99080 | 35026 ft | 486 kts | 58° |
| 2026-05-06 08:07 | 56.10535 | 7.09361 | 35022 ft | 486 kts | 59° |
| 2026-05-06 08:07 | 56.14110 | 7.19659 | 35022 ft | 487 kts | 59° |
| 2026-05-06 08:08 | 56.17693 | 7.29966 | 35024 ft | 487 kts | 59° |
| 2026-05-06 08:08 | 56.21269 | 7.40308 | 35023 ft | 487 kts | 59° |
| 2026-05-06 08:09 | 56.24829 | 7.50672 | 35020 ft | 488 kts | 59° |
| 2026-05-06 08:09 | 56.28388 | 7.61065 | 35015 ft | 488 kts | 59° |
| 2026-05-06 08:10 | 56.31933 | 7.71473 | 35012 ft | 488 kts | 59° |
| 2026-05-06 08:10 | 56.35472 | 7.81922 | 35002 ft | 488 kts | 59° |
| 2026-05-06 08:11 | 56.39009 | 7.92394 | 35003 ft | 489 kts | 59° |
| 2026-05-06 08:11 | 56.42536 | 8.02900 | 35000 ft | 489 kts | 59° |
| 2026-05-06 08:12 | 56.46067 | 8.13433 | 35001 ft | 490 kts | 59° |
| 2026-05-06 08:12 | 56.49620 | 8.23959 | 34995 ft | 491 kts | 58° |
| 2026-05-06 08:13 | 56.53313 | 8.34272 | 34990 ft | 491 kts | 57° |
| 2026-05-06 08:13 | 56.57082 | 8.44606 | 34987 ft | 492 kts | 57° |
| 2026-05-06 08:14 | 56.60810 | 8.55028 | 34978 ft | 492 kts | 58° |
| 2026-05-06 08:14 | 56.64490 | 8.65513 | 34977 ft | 493 kts | 58° |
| 2026-05-06 08:15 | 56.68170 | 8.76037 | 34973 ft | 493 kts | 58° |
| 2026-05-06 08:15 | 56.71875 | 8.86542 | 34971 ft | 493 kts | 54° |
| 2026-05-06 08:16 | 56.76212 | 8.96225 | 34964 ft | 494 kts | 50° |
| 2026-05-06 08:16 | 56.80615 | 9.05843 | 34965 ft | 494 kts | 50° |
| 2026-05-06 08:17 | 56.85012 | 9.15508 | 34956 ft | 495 kts | 50° |
| 2026-05-06 08:17 | 56.89398 | 9.25208 | 34953 ft | 495 kts | 50° |
| 2026-05-06 08:18 | 56.93789 | 9.34951 | 34977 ft | 496 kts | 50° |
| 2026-05-06 08:18 | 56.98176 | 9.44715 | 34969 ft | 497 kts | 50° |
| 2026-05-06 08:19 | 57.02559 | 9.54519 | 34976 ft | 497 kts | 50° |
| 2026-05-06 08:19 | 57.06868 | 9.64471 | 34983 ft | 498 kts | 53° |
| 2026-05-06 08:20 | 57.10833 | 9.74914 | 34993 ft | 499 kts | 57° |
| 2026-05-06 08:20 | 57.14647 | 9.85570 | 34987 ft | 499 kts | 57° |
| 2026-05-06 08:21 | 57.18502 | 9.96141 | 34985 ft | 500 kts | 56° |
| 2026-05-06 08:21 | 57.22435 | 10.06721 | 34994 ft | 500 kts | 56° |
| 2026-05-06 08:22 | 57.26375 | 10.17310 | 34997 ft | 500 kts | 56° |
| 2026-05-06 08:22 | 57.30295 | 10.27953 | 35000 ft | 501 kts | 56° |
| 2026-05-06 08:23 | 57.34197 | 10.38626 | 35002 ft | 501 kts | 56° |
| 2026-05-06 08:23 | 57.38094 | 10.49337 | 35012 ft | 501 kts | 56° |
| 2026-05-06 08:24 | 57.41991 | 10.60071 | 35007 ft | 502 kts | 56° |
| 2026-05-06 08:24 | 57.45882 | 10.70836 | 35001 ft | 502 kts | 56° |
| 2026-05-06 08:25 | 57.49762 | 10.81623 | 35008 ft | 502 kts | 56° |
| 2026-05-06 08:25 | 57.53633 | 10.92434 | 35006 ft | 502 kts | 56° |
| 2026-05-06 08:26 | 57.57489 | 11.03291 | 35006 ft | 503 kts | 56° |
| 2026-05-06 08:26 | 57.61727 | 11.13664 | 35005 ft | 503 kts | 50° |
| 2026-05-06 08:27 | 57.66047 | 11.23944 | 35009 ft | 504 kts | 57° |
| 2026-05-06 08:27 | 57.69728 | 11.35087 | 35003 ft | 504 kts | 58° |
| 2026-05-06 08:28 | 57.73406 | 11.46282 | 34993 ft | 505 kts | 58° |
| 2026-05-06 08:28 | 57.77075 | 11.57491 | 34992 ft | 505 kts | 58° |
| 2026-05-06 08:29 | 57.80741 | 11.68735 | 34983 ft | 506 kts | 58° |
| 2026-05-06 08:29 | 57.84402 | 11.80008 | 34983 ft | 506 kts | 59° |
| 2026-05-06 08:30 | 57.88053 | 11.91337 | 34982 ft | 507 kts | 59° |
| 2026-05-06 08:30 | 57.91689 | 12.02680 | 34985 ft | 507 kts | 59° |
| 2026-05-06 08:31 | 57.95319 | 12.14057 | 34992 ft | 507 kts | 59° |
| 2026-05-06 08:31 | 57.98949 | 12.25474 | 34995 ft | 508 kts | 59° |
| 2026-05-06 08:32 | 58.02568 | 12.36912 | 35001 ft | 508 kts | 59° |
| 2026-05-06 08:32 | 58.06172 | 12.48372 | 35001 ft | 508 kts | 59° |
| 2026-05-06 08:33 | 58.09778 | 12.59881 | 35002 ft | 509 kts | 59° |
| 2026-05-06 08:33 | 58.13372 | 12.71411 | 35002 ft | 509 kts | 59° |
| 2026-05-06 08:34 | 58.18752 | 12.88776 | 34997 ft | 510 kts | 59° |
| 2026-05-06 08:35 | 58.21729 | 12.98435 | 35003 ft | 510 kts | 59° |
| 2026-05-06 08:35 | 58.25297 | 13.10068 | 35001 ft | 511 kts | 59° |
| 2026-05-06 08:36 | 58.28865 | 13.21752 | 35009 ft | 511 kts | 60° |
| 2026-05-06 08:36 | 58.32415 | 13.33460 | 35009 ft | 511 kts | 60° |
| 2026-05-06 08:37 | 58.35963 | 13.45219 | 35018 ft | 512 kts | 60° |
| 2026-05-06 08:37 | 58.39501 | 13.56981 | 35014 ft | 512 kts | 60° |
| 2026-05-06 08:38 | 58.43034 | 13.68789 | 35022 ft | 513 kts | 60° |
| 2026-05-06 08:38 | 58.46558 | 13.80642 | 35022 ft | 513 kts | 60° |
| 2026-05-06 08:39 | 58.50079 | 13.92515 | 35022 ft | 514 kts | 60° |
| 2026-05-06 08:39 | 58.53582 | 14.04420 | 35027 ft | 514 kts | 60° |
| 2026-05-06 08:40 | 58.57083 | 14.16378 | 35022 ft | 514 kts | 60° |
| 2026-05-06 08:40 | 58.60576 | 14.28360 | 35023 ft | 515 kts | 60° |
| 2026-05-06 08:41 | 58.64098 | 14.40210 | 35022 ft | 515 kts | 59° |
| 2026-05-06 08:41 | 58.67701 | 14.52120 | 35017 ft | 516 kts | 59° |
| 2026-05-06 08:42 | 58.71294 | 14.64074 | 35033 ft | 516 kts | 59° |
| 2026-05-06 08:42 | 58.74851 | 14.76077 | 35035 ft | 516 kts | 60° |
| 2026-05-06 08:43 | 58.78391 | 14.88124 | 35035 ft | 517 kts | 60° |
| 2026-05-06 08:43 | 58.81923 | 15.00198 | 35051 ft | 517 kts | 60° |
| 2026-05-06 08:44 | 58.85448 | 15.12296 | 35040 ft | 517 kts | 60° |
| 2026-05-06 08:44 | 58.88969 | 15.24413 | 35039 ft | 517 kts | 60° |
| 2026-05-06 08:45 | 58.92481 | 15.36568 | 35039 ft | 518 kts | 60° |
| 2026-05-06 08:45 | 58.95977 | 15.48761 | 35041 ft | 518 kts | 60° |
| 2026-05-06 08:46 | 58.99464 | 15.60973 | 35042 ft | 518 kts | 60° |
| 2026-05-06 08:46 | 59.02938 | 15.73210 | 35037 ft | 518 kts | 60° |
| 2026-05-06 08:47 | 59.06402 | 15.85468 | 35041 ft | 518 kts | 60° |
| 2026-05-06 08:47 | 59.09849 | 15.97754 | 35043 ft | 518 kts | 60° |
| 2026-05-06 08:48 | 59.13290 | 16.10071 | 35039 ft | 518 kts | 60° |
| 2026-05-06 08:48 | 59.16730 | 16.22426 | 35037 ft | 518 kts | 60° |
| 2026-05-06 08:49 | 59.20128 | 16.34724 | 35038 ft | 519 kts | 60° |
| 2026-05-06 08:49 | 59.23535 | 16.47146 | 35038 ft | 519 kts | 61° |
| 2026-05-06 08:50 | 59.26930 | 16.59567 | 35038 ft | 519 kts | 60° |
| 2026-05-06 08:50 | 59.30325 | 16.72024 | 35041 ft | 518 kts | 61° |
| 2026-05-06 08:51 | 59.33686 | 16.84514 | 35038 ft | 519 kts | 62° |
| 2026-05-06 08:51 | 59.36912 | 16.97159 | 35036 ft | 520 kts | 63° |
| 2026-05-06 08:52 | 59.40049 | 17.09940 | 35032 ft | 520 kts | 63° |
| 2026-05-06 08:52 | 59.43186 | 17.22727 | 35032 ft | 520 kts | 63° |
| 2026-05-06 08:53 | 59.46351 | 17.35527 | 35035 ft | 520 kts | 63° |
| 2026-05-06 08:53 | 59.49512 | 17.48350 | 35041 ft | 521 kts | 63° |
| 2026-05-06 08:54 | 59.52651 | 17.61188 | 35045 ft | 521 kts | 63° |
| 2026-05-06 08:54 | 59.55779 | 17.74072 | 35043 ft | 521 kts | 63° |
| 2026-05-06 08:55 | 59.58898 | 17.87001 | 35045 ft | 522 kts | 63° |
| 2026-05-06 08:55 | 59.62003 | 17.99961 | 35046 ft | 522 kts | 64° |
| 2026-05-06 08:56 | 59.65094 | 18.12948 | 35048 ft | 522 kts | 64° |
| 2026-05-06 08:56 | 59.68172 | 18.25949 | 35044 ft | 523 kts | 64° |
| 2026-05-06 08:57 | 59.71250 | 18.39016 | 35045 ft | 523 kts | 64° |
| 2026-05-06 08:57 | 59.74314 | 18.52095 | 35044 ft | 523 kts | 64° |
| 2026-05-06 08:58 | 59.77336 | 18.65079 | 35048 ft | 523 kts | 64° |
| 2026-05-06 08:58 | 59.80392 | 18.78303 | 35057 ft | 523 kts | 64° |
| 2026-05-06 08:59 | 59.83416 | 18.91461 | 35063 ft | 524 kts | 64° |
| 2026-05-06 08:59 | 59.86412 | 19.04569 | 35065 ft | 524 kts | 64° |
| 2026-05-06 09:00 | 59.89405 | 19.17781 | 35059 ft | 524 kts | 64° |
| 2026-05-06 09:00 | 59.92389 | 19.31014 | 35053 ft | 524 kts | 64° |
| 2026-05-06 09:01 | 59.95366 | 19.44276 | 35054 ft | 524 kts | 64° |
| 2026-05-06 09:01 | 59.98333 | 19.57564 | 35057 ft | 524 kts | 64° |
| 2026-05-06 09:02 | 60.01281 | 19.70888 | 35056 ft | 524 kts | 65° |
| 2026-05-06 09:02 | 60.04212 | 19.84235 | 35056 ft | 524 kts | 65° |
| 2026-05-06 09:03 | 60.07133 | 19.97620 | 35055 ft | 525 kts | 65° |
| 2026-05-06 09:03 | 60.10041 | 20.11019 | 35052 ft | 525 kts | 65° |
| 2026-05-06 09:04 | 60.12937 | 20.24434 | 35056 ft | 524 kts | 65° |
| 2026-05-06 09:04 | 60.15816 | 20.37875 | 35062 ft | 524 kts | 65° |
| 2026-05-06 09:05 | 60.18688 | 20.51341 | 35063 ft | 524 kts | 65° |
| 2026-05-06 09:05 | 60.21550 | 20.64825 | 35070 ft | 525 kts | 65° |
| 2026-05-06 09:06 | 60.24399 | 20.78346 | 35066 ft | 525 kts | 65° |
| 2026-05-06 09:06 | 60.27210 | 20.91804 | 35071 ft | 525 kts | 65° |
| 2026-05-06 09:07 | 60.30024 | 21.05353 | 35070 ft | 524 kts | 65° |
| 2026-05-06 09:07 | 60.32818 | 21.18937 | 35067 ft | 524 kts | 66° |
| 2026-05-06 09:07 | 60.34211 | 21.25737 | 34900 ft | 525 kts | 66° |
| 2026-05-06 09:08 | 60.35444 | 21.32764 | 33811 ft | 539 kts | 75° |
| 2026-05-06 09:08 | 60.36156 | 21.40212 | 33284 ft | 536 kts | 84° |
| 2026-05-06 09:08 | 60.36464 | 21.47626 | 32958 ft | 528 kts | 87° |
| 2026-05-06 09:08 | 60.36750 | 21.54942 | 32427 ft | 525 kts | 86° |
| 2026-05-06 09:09 | 60.37049 | 21.62249 | 31933 ft | 522 kts | 86° |
| 2026-05-06 09:09 | 60.37344 | 21.69435 | 31447 ft | 519 kts | 87° |
| 2026-05-06 09:09 | 60.37634 | 21.76767 | 30926 ft | 516 kts | 87° |
| 2026-05-06 09:09 | 60.37904 | 21.83907 | 30430 ft | 514 kts | 88° |
| 2026-05-06 09:10 | 60.38167 | 21.91192 | 29883 ft | 512 kts | 88° |
| 2026-05-06 09:10 | 60.38415 | 21.98246 | 29395 ft | 508 kts | 88° |
| 2026-05-06 09:10 | 60.38662 | 22.05341 | 28904 ft | 504 kts | 88° |
| 2026-05-06 09:10 | 60.38902 | 22.12364 | 28433 ft | 499 kts | 88° |
| 2026-05-06 09:11 | 60.39139 | 22.19338 | 27960 ft | 495 kts | 88° |
| 2026-05-06 09:11 | 60.39372 | 22.26264 | 27496 ft | 492 kts | 88° |
| 2026-05-06 09:11 | 60.39601 | 22.33139 | 27049 ft | 488 kts | 87° |
| 2026-05-06 09:11 | 60.39826 | 22.39971 | 26605 ft | 485 kts | 87° |
| 2026-05-06 09:12 | 60.40046 | 22.46748 | 26172 ft | 482 kts | 87° |
| 2026-05-06 09:12 | 60.40258 | 22.53503 | 25740 ft | 479 kts | 87° |
| 2026-05-06 09:12 | 60.40464 | 22.60209 | 25324 ft | 477 kts | 88° |
| 2026-05-06 09:12 | 60.40667 | 22.66871 | 24901 ft | 474 kts | 87° |
| 2026-05-06 09:13 | 60.40867 | 22.73512 | 24483 ft | 473 kts | 87° |
| 2026-05-06 09:13 | 60.41064 | 22.80158 | 24060 ft | 471 kts | 87° |
| 2026-05-06 09:13 | 60.41259 | 22.86764 | 23636 ft | 469 kts | 87° |
| 2026-05-06 09:13 | 60.41451 | 22.93344 | 23143 ft | 468 kts | 87° |
| 2026-05-06 09:14 | 60.41639 | 22.99876 | 22716 ft | 463 kts | 87° |
| 2026-05-06 09:14 | 60.41822 | 23.06367 | 22268 ft | 460 kts | 87° |
| 2026-05-06 09:14 | 60.41998 | 23.12809 | 21820 ft | 457 kts | 88° |
| 2026-05-06 09:14 | 60.42168 | 23.19196 | 21370 ft | 454 kts | 88° |
| 2026-05-06 09:15 | 60.42335 | 23.25560 | 20914 ft | 451 kts | 87° |
| 2026-05-06 09:15 | 60.42496 | 23.31811 | 20473 ft | 448 kts | 87° |
| 2026-05-06 09:15 | 60.42656 | 23.38110 | 20005 ft | 445 kts | 88° |
| 2026-05-06 09:15 | 60.42813 | 23.44339 | 19558 ft | 442 kts | 88° |
| 2026-05-06 09:16 | 60.42966 | 23.50535 | 19106 ft | 439 kts | 87° |
| 2026-05-06 09:16 | 60.43114 | 23.56662 | 18656 ft | 436 kts | 88° |
| 2026-05-06 09:16 | 60.43257 | 23.62698 | 18191 ft | 433 kts | 87° |
| 2026-05-06 09:16 | 60.43399 | 23.68858 | 17718 ft | 429 kts | 87° |
| 2026-05-06 09:17 | 60.43536 | 23.74850 | 17279 ft | 424 kts | 87° |
| 2026-05-06 09:17 | 60.43665 | 23.80658 | 16842 ft | 411 kts | 87° |
| 2026-05-06 09:17 | 60.43790 | 23.86342 | 16419 ft | 398 kts | 87° |
| 2026-05-06 09:17 | 60.43965 | 23.91843 | 16004 ft | 385 kts | 84° |
| 2026-05-06 09:18 | 60.44230 | 23.97165 | 15607 ft | 373 kts | 82° |
| 2026-05-06 09:18 | 60.44546 | 24.02287 | 15234 ft | 362 kts | 81° |
| 2026-05-06 09:18 | 60.44875 | 24.07277 | 14930 ft | 353 kts | 81° |
| 2026-05-06 09:18 | 60.45194 | 24.12185 | 14682 ft | 352 kts | 81° |
| 2026-05-06 09:19 | 60.45496 | 24.17092 | 14308 ft | 350 kts | 81° |
| 2026-05-06 09:19 | 60.45783 | 24.21958 | 14021 ft | 346 kts | 81° |
| 2026-05-06 09:19 | 60.46049 | 24.26755 | 13530 ft | 340 kts | 82° |
| 2026-05-06 09:19 | 60.46262 | 24.31447 | 12824 ft | 336 kts | 83° |
| 2026-05-06 09:20 | 60.46439 | 24.36091 | 12523 ft | 331 kts | 84° |
| 2026-05-06 09:20 | 60.46603 | 24.40656 | 12210 ft | 327 kts | 84° |
| 2026-05-06 09:20 | 60.46766 | 24.45216 | 11810 ft | 323 kts | 84° |
| 2026-05-06 09:20 | 60.46924 | 24.49712 | 11281 ft | 315 kts | 84° |
| 2026-05-06 09:21 | 60.47084 | 24.54139 | 10896 ft | 314 kts | 84° |
| 2026-05-06 09:21 | 60.47250 | 24.58523 | 10582 ft | 310 kts | 84° |
| 2026-05-06 09:21 | 60.47207 | 24.62884 | 10249 ft | 308 kts | 97° |
| 2026-05-06 09:21 | 60.46843 | 24.67142 | 9933 ft | 305 kts | 99° |
| 2026-05-06 09:22 | 60.46470 | 24.71358 | 9555 ft | 301 kts | 99° |
| 2026-05-06 09:22 | 60.46103 | 24.75488 | 8872 ft | 295 kts | 99° |
| 2026-05-06 09:22 | 60.45741 | 24.79539 | 8470 ft | 291 kts | 99° |
| 2026-05-06 09:22 | 60.45504 | 24.82206 | 8216 ft | 291 kts | 99° |
| 2026-05-06 09:23 | 60.45145 | 24.86225 | 7834 ft | 289 kts | 99° |
| 2026-05-06 09:23 | 60.44963 | 24.90249 | 7462 ft | 286 kts | 85° |
| 2026-05-06 09:23 | 60.45316 | 24.94164 | 7097 ft | 283 kts | 69° |
| 2026-05-06 09:23 | 60.46174 | 24.97725 | 6725 ft | 281 kts | 53° |
| 2026-05-06 09:24 | 60.47418 | 25.00696 | 6526 ft | 273 kts | 44° |
| 2026-05-06 09:24 | 60.48669 | 25.03453 | 6391 ft | 265 kts | 45° |
| 2026-05-06 09:24 | 60.49886 | 25.06170 | 6251 ft | 256 kts | 45° |
| 2026-05-06 09:24 | 60.51067 | 25.08809 | 6120 ft | 249 kts | 45° |
| 2026-05-06 09:25 | 60.51974 | 25.11759 | 5837 ft | 251 kts | 73° |
| 2026-05-06 09:25 | 60.52007 | 25.15258 | 5440 ft | 251 kts | 107° |
| 2026-05-06 09:25 | 60.51149 | 25.18188 | 5053 ft | 239 kts | 138° |
| 2026-05-06 09:25 | 60.49894 | 25.20472 | 4686 ft | 244 kts | 140° |
| 2026-05-06 09:26 | 60.48638 | 25.22766 | 4349 ft | 240 kts | 140° |
| 2026-05-06 09:26 | 60.47315 | 25.24739 | 4023 ft | 233 kts | 162° |
| 2026-05-06 09:26 | 60.45774 | 25.24926 | 3823 ft | 216 kts | 199° |
| 2026-05-06 09:26 | 60.44563 | 25.23449 | 3615 ft | 196 kts | 228° |
| 2026-05-06 09:27 | 60.43673 | 25.21476 | 3353 ft | 183 kts | 232° |
| 2026-05-06 09:27 | 60.42830 | 25.19578 | 3124 ft | 182 kts | 232° |
| 2026-05-06 09:27 | 60.41985 | 25.17687 | 2875 ft | 177 kts | 231° |
| 2026-05-06 09:27 | 60.41173 | 25.15879 | 2627 ft | 171 kts | 231° |
| 2026-05-06 09:28 | 60.40384 | 25.14125 | 2422 ft | 165 kts | 231° |
| 2026-05-06 09:28 | 60.39621 | 25.12428 | 2175 ft | 158 kts | 231° |
| 2026-05-06 09:28 | 60.38901 | 25.10831 | 1977 ft | 147 kts | 232° |
| 2026-05-06 09:28 | 60.38229 | 25.09341 | 1764 ft | 140 kts | 231° |
| 2026-05-06 09:29 | 60.37580 | 25.07899 | 1580 ft | 137 kts | 232° |
| 2026-05-06 09:29 | 60.36939 | 25.06479 | 1383 ft | 136 kts | 231° |
| 2026-05-06 09:29 | 60.36299 | 25.05061 | 1168 ft | 135 kts | 231° |
| 2026-05-06 09:29 | 60.35675 | 25.03678 | 990 ft | 135 kts | 231° |
| 2026-05-06 09:30 | 60.35046 | 25.02286 | 788 ft | 136 kts | 230° |
| 2026-05-06 09:30 | 60.34410 | 25.00881 | 606 ft | 135 kts | 230° |
| 2026-05-06 09:30 | 60.33772 | 24.99470 | 408 ft | 136 kts | 230° |
| 2026-05-06 09:30 | 60.33138 | 24.98070 | 233 ft | 135 kts | 230° |
| 2026-05-06 09:31 | 60.32546 | 24.96754 | 173 ft | 104 kts | 228° |
| 2026-05-06 09:31 | 60.32259 | 24.96126 | 178 ft | 28 kts | 227° |
| 2026-05-06 09:31 | 60.32129 | 24.95846 | 176 ft | 27 kts | 226° |
| 2026-05-06 09:31 | 60.31976 | 24.95667 | 173 ft | 25 kts | 203° |
| 2026-05-06 09:32 | 60.31877 | 24.95604 | 170 ft | 14 kts | 197° |
| 2026-05-06 09:32 | 60.31799 | 24.95625 | 170 ft | 12 kts | 184° |
| 2026-05-06 09:32 | 60.31731 | 24.95519 | 171 ft | 14 kts | 233° |
| 2026-05-06 09:32 | 60.31660 | 24.95366 | 170 ft | 17 kts | 227° |
| 2026-05-06 09:33 | 60.31587 | 24.95207 | 170 ft | 13 kts | 228° |
| 2026-05-06 09:33 | 60.31520 | 24.95059 | 169 ft | 16 kts | 227° |
| 2026-05-06 09:33 | 60.31427 | 24.95027 | 167 ft | 16 kts | 126° |
| 2026-05-06 09:33 | 60.31366 | 24.95148 | 167 ft | 12 kts | 137° |
| 2026-05-06 09:34 | 60.31302 | 24.95265 | 166 ft | 13 kts | 137° |
| 2026-05-06 09:34 | 60.31237 | 24.95386 | 166 ft | 12 kts | 137° |
| 2026-05-06 09:34 | 60.31175 | 24.95504 | 166 ft | 13 kts | 128° |
| 2026-05-06 09:34 | 60.31194 | 24.95663 | 167 ft | 13 kts | 49° |
| 2026-05-06 09:35 | 60.31259 | 24.95806 | 167 ft | 15 kts | 47° |
| 2026-05-06 09:35 | 60.31324 | 24.95948 | 167 ft | 12 kts | 47° |
| 2026-05-06 09:35 | 60.31368 | 24.96048 | 167 ft | 8 kts | 42° |
| 2026-05-06 09:35 | 60.31406 | 24.96097 | 167 ft | 6 kts | 32° |
| 2026-05-06 09:36 | 60.31433 | 24.96130 | 167 ft | 4 kts | 32° |
| 2026-05-06 09:36 | 60.31446 | 24.96147 | 167 ft | 1 kts | 32° |
| 2026-05-06 09:36 | 60.31447 | 24.96148 | 167 ft | 0 kts | 32° |
| 2026-05-06 09:36 | 60.31452 | 24.96154 | 167 ft | 1 kts | 32° |
| 2026-05-06 09:37 | 60.31456 | 24.96159 | 167 ft | 0 kts | 31° |
| 2026-05-06 09:37 | 60.31459 | 24.96163 | 167 ft | 0 kts | 31° |